sensor_id;sensor_type;location;lat;lon;timestamp;P1;durP1;ratioP1;P2;durP2;ratioP2
29382;SDS011;16365;51.598;7.668;2022-12-17T00:01:28;170.65;;;52.88;;
29382;SDS011;16365;51.598;7.668;2022-12-17T00:04:13;202.20;;;56.17;;
29382;SDS011;16365;51.598;7.668;2022-12-17T00:06:58;207.52;;;56.28;;
29382;SDS011;16365;51.598;7.668;2022-12-17T00:09:43;171.68;;;52.47;;
29382;SDS011;16365;51.598;7.668;2022-12-17T00:12:28;168.68;;;52.33;;
29382;SDS011;16365;51.598;7.668;2022-12-17T00:15:13;189.88;;;51.55;;
29382;SDS011;16365;51.598;7.668;2022-12-17T00:18:06;169.20;;;50.97;;
29382;SDS011;16365;51.598;7.668;2022-12-17T00:20:52;208.63;;;55.83;;
29382;SDS011;16365;51.598;7.668;2022-12-17T00:23:38;169.90;;;50.88;;
29382;SDS011;16365;51.598;7.668;2022-12-17T00:26:23;160.27;;;51.63;;
29382;SDS011;16365;51.598;7.668;2022-12-17T00:29:09;144.80;;;51.15;;
29382;SDS011;16365;51.598;7.668;2022-12-17T00:31:54;144.98;;;51.13;;
29382;SDS011;16365;51.598;7.668;2022-12-17T00:34:39;135.95;;;48.88;;
29382;SDS011;16365;51.598;7.668;2022-12-17T00:37:24;144.27;;;50.35;;
29382;SDS011;16365;51.598;7.668;2022-12-17T00:40:09;147.40;;;51.95;;
29382;SDS011;16365;51.598;7.668;2022-12-17T00:42:58;131.57;;;49.67;;
29382;SDS011;16365;51.598;7.668;2022-12-17T00:45:44;154.45;;;50.13;;
29382;SDS011;16365;51.598;7.668;2022-12-17T00:48:30;154.02;;;48.20;;
29382;SDS011;16365;51.598;7.668;2022-12-17T00:51:15;139.88;;;47.75;;
29382;SDS011;16365;51.598;7.668;2022-12-17T00:54:00;150.25;;;50.05;;
29382;SDS011;16365;51.598;7.668;2022-12-17T00:56:45;149.27;;;49.55;;
29382;SDS011;16365;51.598;7.668;2022-12-17T00:59:29;140.02;;;48.28;;
29382;SDS011;16365;51.598;7.668;2022-12-17T01:02:14;136.52;;;49.50;;
29382;SDS011;16365;51.598;7.668;2022-12-17T01:04:59;158.40;;;49.88;;
29382;SDS011;16365;51.598;7.668;2022-12-17T01:07:44;127.60;;;48.88;;
29382;SDS011;16365;51.598;7.668;2022-12-17T01:10:29;134.57;;;47.63;;
29382;SDS011;16365;51.598;7.668;2022-12-17T01:13:14;136.43;;;50.00;;
29382;SDS011;16365;51.598;7.668;2022-12-17T01:16:01;159.05;;;50.65;;
29382;SDS011;16365;51.598;7.668;2022-12-17T01:18:53;129.02;;;46.42;;
29382;SDS011;16365;51.598;7.668;2022-12-17T01:21:39;150.15;;;46.95;;
29382;SDS011;16365;51.598;7.668;2022-12-17T01:24:25;138.65;;;49.97;;
29382;SDS011;16365;51.598;7.668;2022-12-17T01:27:10;125.63;;;45.45;;
29382;SDS011;16365;51.598;7.668;2022-12-17T01:29:55;176.02;;;49.53;;
29382;SDS011;16365;51.598;7.668;2022-12-17T01:32:40;148.98;;;47.45;;
29382;SDS011;16365;51.598;7.668;2022-12-17T01:35:25;154.40;;;49.42;;
29382;SDS011;16365;51.598;7.668;2022-12-17T01:38:14;179.10;;;51.92;;
29382;SDS011;16365;51.598;7.668;2022-12-17T01:41:02;157.43;;;48.90;;
29382;SDS011;16365;51.598;7.668;2022-12-17T01:43:48;142.65;;;49.53;;
29382;SDS011;16365;51.598;7.668;2022-12-17T01:46:37;136.07;;;48.70;;
29382;SDS011;16365;51.598;7.668;2022-12-17T01:49:25;132.80;;;44.55;;
29382;SDS011;16365;51.598;7.668;2022-12-17T01:52:11;181.57;;;48.75;;
29382;SDS011;16365;51.598;7.668;2022-12-17T01:57:46;138.32;;;45.38;;
29382;SDS011;16365;51.598;7.668;2022-12-17T02:00:31;140.35;;;45.53;;
29382;SDS011;16365;51.598;7.668;2022-12-17T02:03:16;134.00;;;43.95;;
29382;SDS011;16365;51.598;7.668;2022-12-17T02:06:14;137.95;;;45.90;;
29382;SDS011;16365;51.598;7.668;2022-12-17T02:09:10;137.30;;;44.03;;
29382;SDS011;16365;51.598;7.668;2022-12-17T02:12:01;139.18;;;43.00;;
29382;SDS011;16365;51.598;7.668;2022-12-17T02:17:49;131.60;;;43.03;;
29382;SDS011;16365;51.598;7.668;2022-12-17T02:20:45;146.70;;;44.55;;
29382;SDS011;16365;51.598;7.668;2022-12-17T02:23:58;123.95;;;42.85;;
29382;SDS011;16365;51.598;7.668;2022-12-17T02:26:59;128.25;;;41.83;;
29382;SDS011;16365;51.598;7.668;2022-12-17T02:29:50;145.27;;;44.13;;
29382;SDS011;16365;51.598;7.668;2022-12-17T02:32:40;142.73;;;43.67;;
29382;SDS011;16365;51.598;7.668;2022-12-17T02:35:48;131.50;;;43.63;;
29382;SDS011;16365;51.598;7.668;2022-12-17T02:38:43;121.50;;;40.58;;
29382;SDS011;16365;51.598;7.668;2022-12-17T02:41:29;126.82;;;41.97;;
29382;SDS011;16365;51.598;7.668;2022-12-17T02:44:18;128.60;;;42.45;;
29382;SDS011;16365;51.598;7.668;2022-12-17T02:47:07;124.25;;;41.97;;
29382;SDS011;16365;51.598;7.668;2022-12-17T02:49:54;131.45;;;42.65;;
29382;SDS011;16365;51.598;7.668;2022-12-17T02:52:43;115.60;;;40.30;;
29382;SDS011;16365;51.598;7.668;2022-12-17T02:55:31;134.20;;;39.28;;
29382;SDS011;16365;51.598;7.668;2022-12-17T02:58:18;123.43;;;41.97;;
29382;SDS011;16365;51.598;7.668;2022-12-17T03:01:03;112.50;;;37.85;;
29382;SDS011;16365;51.598;7.668;2022-12-17T03:03:48;112.43;;;40.35;;
29382;SDS011;16365;51.598;7.668;2022-12-17T03:06:34;110.05;;;40.70;;
29382;SDS011;16365;51.598;7.668;2022-12-17T03:09:19;113.22;;;40.40;;
29382;SDS011;16365;51.598;7.668;2022-12-17T03:12:05;103.82;;;38.33;;
29382;SDS011;16365;51.598;7.668;2022-12-17T03:14:50;110.80;;;40.13;;
29382;SDS011;16365;51.598;7.668;2022-12-17T03:17:35;109.57;;;37.58;;
29382;SDS011;16365;51.598;7.668;2022-12-17T03:20:20;101.20;;;37.90;;
29382;SDS011;16365;51.598;7.668;2022-12-17T03:23:07;107.80;;;37.83;;
29382;SDS011;16365;51.598;7.668;2022-12-17T03:28:41;91.07;;;34.67;;
29382;SDS011;16365;51.598;7.668;2022-12-17T03:31:26;94.43;;;35.95;;
29382;SDS011;16365;51.598;7.668;2022-12-17T03:34:11;96.18;;;36.40;;
29382;SDS011;16365;51.598;7.668;2022-12-17T03:36:56;91.57;;;36.42;;
29382;SDS011;16365;51.598;7.668;2022-12-17T03:39:42;94.18;;;35.20;;
29382;SDS011;16365;51.598;7.668;2022-12-17T03:42:27;92.72;;;36.10;;
29382;SDS011;16365;51.598;7.668;2022-12-17T03:45:11;93.50;;;36.50;;
29382;SDS011;16365;51.598;7.668;2022-12-17T03:48:30;80.13;;;32.58;;
29382;SDS011;16365;51.598;7.668;2022-12-17T03:51:08;89.53;;;33.88;;
29382;SDS011;16365;51.598;7.668;2022-12-17T03:53:53;92.07;;;34.70;;
29382;SDS011;16365;51.598;7.668;2022-12-17T03:56:38;84.00;;;32.28;;
29382;SDS011;16365;51.598;7.668;2022-12-17T03:59:23;85.15;;;34.17;;
29382;SDS011;16365;51.598;7.668;2022-12-17T04:02:08;92.13;;;34.58;;
29382;SDS011;16365;51.598;7.668;2022-12-17T04:04:53;93.63;;;35.35;;
29382;SDS011;16365;51.598;7.668;2022-12-17T04:07:45;87.90;;;32.88;;
29382;SDS011;16365;51.598;7.668;2022-12-17T04:10:30;81.20;;;31.73;;
29382;SDS011;16365;51.598;7.668;2022-12-17T04:13:14;89.18;;;34.08;;
29382;SDS011;16365;51.598;7.668;2022-12-17T04:16:06;83.07;;;32.75;;
29382;SDS011;16365;51.598;7.668;2022-12-17T04:18:50;96.20;;;36.60;;
29382;SDS011;16365;51.598;7.668;2022-12-17T04:21:35;93.28;;;36.20;;
29382;SDS011;16365;51.598;7.668;2022-12-17T04:24:20;103.40;;;36.67;;
29382;SDS011;16365;51.598;7.668;2022-12-17T04:27:06;94.47;;;34.30;;
29382;SDS011;16365;51.598;7.668;2022-12-17T04:29:50;93.75;;;36.15;;
29382;SDS011;16365;51.598;7.668;2022-12-17T04:32:35;88.47;;;35.67;;
29382;SDS011;16365;51.598;7.668;2022-12-17T04:35:20;96.47;;;37.58;;
29382;SDS011;16365;51.598;7.668;2022-12-17T04:38:05;97.32;;;35.72;;
29382;SDS011;16365;51.598;7.668;2022-12-17T04:40:50;86.70;;;35.38;;
29382;SDS011;16365;51.598;7.668;2022-12-17T04:43:35;102.38;;;35.90;;
29382;SDS011;16365;51.598;7.668;2022-12-17T04:46:30;98.35;;;37.53;;
29382;SDS011;16365;51.598;7.668;2022-12-17T04:52:00;108.60;;;34.63;;
29382;SDS011;16365;51.598;7.668;2022-12-17T04:54:45;91.40;;;33.10;;
29382;SDS011;16365;51.598;7.668;2022-12-17T04:57:31;84.95;;;33.20;;
29382;SDS011;16365;51.598;7.668;2022-12-17T05:00:17;97.60;;;33.13;;
29382;SDS011;16365;51.598;7.668;2022-12-17T05:03:05;94.47;;;33.38;;
29382;SDS011;16365;51.598;7.668;2022-12-17T05:05:51;125.72;;;35.92;;
29382;SDS011;16365;51.598;7.668;2022-12-17T05:08:36;100.43;;;31.40;;
29382;SDS011;16365;51.598;7.668;2022-12-17T05:11:21;99.22;;;32.88;;
29382;SDS011;16365;51.598;7.668;2022-12-17T05:14:06;83.55;;;31.30;;
29382;SDS011;16365;51.598;7.668;2022-12-17T05:16:51;94.20;;;31.55;;
29382;SDS011;16365;51.598;7.668;2022-12-17T05:19:36;111.10;;;32.45;;
29382;SDS011;16365;51.598;7.668;2022-12-17T05:22:21;79.10;;;30.92;;
29382;SDS011;16365;51.598;7.668;2022-12-17T05:25:06;86.85;;;31.45;;
29382;SDS011;16365;51.598;7.668;2022-12-17T05:27:54;91.57;;;32.53;;
29382;SDS011;16365;51.598;7.668;2022-12-17T05:30:39;90.78;;;32.53;;
29382;SDS011;16365;51.598;7.668;2022-12-17T05:33:24;74.57;;;30.40;;
29382;SDS011;16365;51.598;7.668;2022-12-17T05:36:09;84.00;;;31.30;;
29382;SDS011;16365;51.598;7.668;2022-12-17T05:38:54;105.88;;;32.58;;
29382;SDS011;16365;51.598;7.668;2022-12-17T05:41:40;84.00;;;32.22;;
29382;SDS011;16365;51.598;7.668;2022-12-17T05:44:26;90.38;;;33.63;;
29382;SDS011;16365;51.598;7.668;2022-12-17T05:47:11;86.40;;;32.40;;
29382;SDS011;16365;51.598;7.668;2022-12-17T05:49:56;95.05;;;33.40;;
29382;SDS011;16365;51.598;7.668;2022-12-17T05:52:42;88.97;;;32.55;;
29382;SDS011;16365;51.598;7.668;2022-12-17T05:55:27;89.63;;;32.72;;
29382;SDS011;16365;51.598;7.668;2022-12-17T05:58:12;82.90;;;32.72;;
29382;SDS011;16365;51.598;7.668;2022-12-17T06:00:58;86.65;;;32.53;;
29382;SDS011;16365;51.598;7.668;2022-12-17T06:03:44;87.93;;;32.58;;
29382;SDS011;16365;51.598;7.668;2022-12-17T06:06:30;85.18;;;32.55;;
29382;SDS011;16365;51.598;7.668;2022-12-17T06:09:15;90.70;;;31.85;;
29382;SDS011;16365;51.598;7.668;2022-12-17T06:12:00;85.93;;;33.53;;
29382;SDS011;16365;51.598;7.668;2022-12-17T06:14:45;81.05;;;30.75;;
29382;SDS011;16365;51.598;7.668;2022-12-17T06:17:30;83.22;;;31.77;;
29382;SDS011;16365;51.598;7.668;2022-12-17T06:20:15;81.53;;;32.15;;
29382;SDS011;16365;51.598;7.668;2022-12-17T06:23:01;81.68;;;31.67;;
29382;SDS011;16365;51.598;7.668;2022-12-17T06:25:50;81.93;;;31.17;;
29382;SDS011;16365;51.598;7.668;2022-12-17T06:28:36;83.28;;;31.23;;
29382;SDS011;16365;51.598;7.668;2022-12-17T06:31:20;83.57;;;31.40;;
29382;SDS011;16365;51.598;7.668;2022-12-17T06:34:05;85.90;;;32.92;;
29382;SDS011;16365;51.598;7.668;2022-12-17T06:36:51;91.38;;;33.60;;
29382;SDS011;16365;51.598;7.668;2022-12-17T06:39:36;81.05;;;30.70;;
29382;SDS011;16365;51.598;7.668;2022-12-17T06:42:21;78.20;;;30.52;;
29382;SDS011;16365;51.598;7.668;2022-12-17T06:45:06;88.40;;;30.65;;
29382;SDS011;16365;51.598;7.668;2022-12-17T06:47:51;78.63;;;30.10;;
29382;SDS011;16365;51.598;7.668;2022-12-17T06:50:44;77.63;;;29.80;;
29382;SDS011;16365;51.598;7.668;2022-12-17T06:53:29;79.53;;;29.45;;
29382;SDS011;16365;51.598;7.668;2022-12-17T06:56:14;87.30;;;30.65;;
29382;SDS011;16365;51.598;7.668;2022-12-17T06:59:00;90.20;;;32.30;;
29382;SDS011;16365;51.598;7.668;2022-12-17T07:01:45;71.85;;;29.58;;
29382;SDS011;16365;51.598;7.668;2022-12-17T07:04:31;83.30;;;30.95;;
29382;SDS011;16365;51.598;7.668;2022-12-17T07:07:15;82.50;;;31.35;;
29382;SDS011;16365;51.598;7.668;2022-12-17T07:10:00;77.45;;;29.63;;
29382;SDS011;16365;51.598;7.668;2022-12-17T07:12:46;76.07;;;30.92;;
29382;SDS011;16365;51.598;7.668;2022-12-17T07:15:31;76.75;;;29.45;;
29382;SDS011;16365;51.598;7.668;2022-12-17T07:18:16;79.38;;;28.67;;
29382;SDS011;16365;51.598;7.668;2022-12-17T07:21:01;84.68;;;31.58;;
29382;SDS011;16365;51.598;7.668;2022-12-17T07:23:46;75.40;;;28.90;;
29382;SDS011;16365;51.598;7.668;2022-12-17T07:26:30;75.70;;;28.92;;
29382;SDS011;16365;51.598;7.668;2022-12-17T07:29:15;77.63;;;28.63;;
29382;SDS011;16365;51.598;7.668;2022-12-17T07:32:00;80.43;;;28.38;;
29382;SDS011;16365;51.598;7.668;2022-12-17T07:34:45;74.22;;;29.48;;
29382;SDS011;16365;51.598;7.668;2022-12-17T07:37:30;85.68;;;29.08;;
29382;SDS011;16365;51.598;7.668;2022-12-17T07:40:15;79.78;;;27.77;;
29382;SDS011;16365;51.598;7.668;2022-12-17T07:43:00;70.95;;;26.63;;
29382;SDS011;16365;51.598;7.668;2022-12-17T07:45:45;70.97;;;26.52;;
29382;SDS011;16365;51.598;7.668;2022-12-17T07:48:31;65.70;;;25.23;;
29382;SDS011;16365;51.598;7.668;2022-12-17T07:51:16;68.63;;;24.90;;
29382;SDS011;16365;51.598;7.668;2022-12-17T07:54:01;63.70;;;24.77;;
29382;SDS011;16365;51.598;7.668;2022-12-17T07:56:47;65.78;;;25.23;;
29382;SDS011;16365;51.598;7.668;2022-12-17T07:59:32;72.10;;;26.42;;
29382;SDS011;16365;51.598;7.668;2022-12-17T08:02:17;77.88;;;26.05;;
29382;SDS011;16365;51.598;7.668;2022-12-17T08:05:02;68.68;;;25.02;;
29382;SDS011;16365;51.598;7.668;2022-12-17T08:07:47;71.50;;;25.33;;
29382;SDS011;16365;51.598;7.668;2022-12-17T08:10:33;71.50;;;25.98;;
29382;SDS011;16365;51.598;7.668;2022-12-17T08:13:17;71.88;;;26.42;;
29382;SDS011;16365;51.598;7.668;2022-12-17T08:16:03;70.80;;;24.52;;
29382;SDS011;16365;51.598;7.668;2022-12-17T08:18:48;71.43;;;25.88;;
29382;SDS011;16365;51.598;7.668;2022-12-17T08:21:33;69.05;;;26.67;;
29382;SDS011;16365;51.598;7.668;2022-12-17T08:24:18;74.53;;;26.00;;
29382;SDS011;16365;51.598;7.668;2022-12-17T08:27:03;75.32;;;27.20;;
29382;SDS011;16365;51.598;7.668;2022-12-17T08:29:48;77.13;;;27.27;;
29382;SDS011;16365;51.598;7.668;2022-12-17T08:32:33;69.15;;;25.75;;
29382;SDS011;16365;51.598;7.668;2022-12-17T08:35:18;74.82;;;25.83;;
29382;SDS011;16365;51.598;7.668;2022-12-17T08:38:04;80.65;;;25.85;;
29382;SDS011;16365;51.598;7.668;2022-12-17T08:40:50;71.22;;;24.95;;
29382;SDS011;16365;51.598;7.668;2022-12-17T08:43:35;77.45;;;25.50;;
29382;SDS011;16365;51.598;7.668;2022-12-17T08:46:20;74.80;;;24.27;;
29382;SDS011;16365;51.598;7.668;2022-12-17T08:49:05;86.90;;;29.67;;
29382;SDS011;16365;51.598;7.668;2022-12-17T08:51:50;71.20;;;24.60;;
29382;SDS011;16365;51.598;7.668;2022-12-17T08:54:35;69.95;;;23.65;;
29382;SDS011;16365;51.598;7.668;2022-12-17T08:57:20;69.22;;;22.75;;
29382;SDS011;16365;51.598;7.668;2022-12-17T09:00:05;73.97;;;23.58;;
29382;SDS011;16365;51.598;7.668;2022-12-17T09:02:55;75.97;;;23.60;;
29382;SDS011;16365;51.598;7.668;2022-12-17T09:05:41;63.15;;;22.50;;
29382;SDS011;16365;51.598;7.668;2022-12-17T09:08:27;65.43;;;23.13;;
29382;SDS011;16365;51.598;7.668;2022-12-17T09:11:13;62.80;;;22.67;;
29382;SDS011;16365;51.598;7.668;2022-12-17T09:13:58;65.25;;;23.77;;
29382;SDS011;16365;51.598;7.668;2022-12-17T09:16:43;64.60;;;22.33;;
29382;SDS011;16365;51.598;7.668;2022-12-17T09:19:29;70.82;;;23.35;;
29382;SDS011;16365;51.598;7.668;2022-12-17T09:22:14;73.78;;;26.05;;
29382;SDS011;16365;51.598;7.668;2022-12-17T09:24:59;67.82;;;22.95;;
29382;SDS011;16365;51.598;7.668;2022-12-17T09:27:44;68.75;;;25.10;;
29382;SDS011;16365;51.598;7.668;2022-12-17T09:30:29;68.28;;;23.88;;
29382;SDS011;16365;51.598;7.668;2022-12-17T09:33:15;74.35;;;24.92;;
29382;SDS011;16365;51.598;7.668;2022-12-17T09:36:05;70.93;;;26.30;;
29382;SDS011;16365;51.598;7.668;2022-12-17T09:38:50;65.15;;;24.55;;
29382;SDS011;16365;51.598;7.668;2022-12-17T09:41:39;76.00;;;24.15;;
29382;SDS011;16365;51.598;7.668;2022-12-17T09:44:33;64.85;;;23.45;;
29382;SDS011;16365;51.598;7.668;2022-12-17T09:47:35;67.15;;;24.83;;
29382;SDS011;16365;51.598;7.668;2022-12-17T09:50:30;72.22;;;24.67;;
29382;SDS011;16365;51.598;7.668;2022-12-17T09:56:04;71.97;;;26.25;;
29382;SDS011;16365;51.598;7.668;2022-12-17T09:58:50;69.57;;;24.40;;
29382;SDS011;16365;51.598;7.668;2022-12-17T10:01:40;81.43;;;27.02;;
29382;SDS011;16365;51.598;7.668;2022-12-17T10:04:41;72.20;;;25.63;;
29382;SDS011;16365;51.598;7.668;2022-12-17T10:07:33;77.47;;;24.52;;
29382;SDS011;16365;51.598;7.668;2022-12-17T10:10:24;70.25;;;23.98;;
29382;SDS011;16365;51.598;7.668;2022-12-17T10:13:15;68.60;;;25.33;;
29382;SDS011;16365;51.598;7.668;2022-12-17T10:16:19;70.28;;;26.30;;
29382;SDS011;16365;51.598;7.668;2022-12-17T10:19:39;69.10;;;25.70;;
29382;SDS011;16365;51.598;7.668;2022-12-17T10:22:25;70.87;;;25.17;;
29382;SDS011;16365;51.598;7.668;2022-12-17T10:28:11;68.50;;;26.90;;
29382;SDS011;16365;51.598;7.668;2022-12-17T10:30:59;76.47;;;28.45;;
29382;SDS011;16365;51.598;7.668;2022-12-17T10:33:45;65.28;;;25.17;;
29382;SDS011;16365;51.598;7.668;2022-12-17T10:36:30;72.28;;;27.40;;
29382;SDS011;16365;51.598;7.668;2022-12-17T10:39:17;85.40;;;28.70;;
29382;SDS011;16365;51.598;7.668;2022-12-17T10:42:20;83.07;;;28.08;;
29382;SDS011;16365;51.598;7.668;2022-12-17T10:45:20;76.22;;;27.08;;
29382;SDS011;16365;51.598;7.668;2022-12-17T10:51:15;73.68;;;25.25;;
29382;SDS011;16365;51.598;7.668;2022-12-17T10:54:34;78.18;;;28.08;;
29382;SDS011;16365;51.598;7.668;2022-12-17T10:57:35;77.78;;;29.13;;
29382;SDS011;16365;51.598;7.668;2022-12-17T11:00:22;73.40;;;27.40;;
29382;SDS011;16365;51.598;7.668;2022-12-17T11:03:29;80.28;;;27.60;;
29382;SDS011;16365;51.598;7.668;2022-12-17T11:06:27;71.47;;;26.70;;
29382;SDS011;16365;51.598;7.668;2022-12-17T11:09:17;81.53;;;28.95;;
29382;SDS011;16365;51.598;7.668;2022-12-17T11:12:13;78.70;;;30.42;;
29382;SDS011;16365;51.598;7.668;2022-12-17T11:15:03;89.38;;;31.60;;
29382;SDS011;16365;51.598;7.668;2022-12-17T11:18:00;77.85;;;28.58;;
29382;SDS011;16365;51.598;7.668;2022-12-17T11:21:00;78.70;;;29.85;;
29382;SDS011;16365;51.598;7.668;2022-12-17T11:23:49;73.47;;;27.08;;
29382;SDS011;16365;51.598;7.668;2022-12-17T11:26:37;73.05;;;27.75;;
29382;SDS011;16365;51.598;7.668;2022-12-17T11:29:25;77.53;;;29.80;;
29382;SDS011;16365;51.598;7.668;2022-12-17T11:35:19;81.32;;;30.10;;
29382;SDS011;16365;51.598;7.668;2022-12-17T11:38:36;71.10;;;27.50;;
29382;SDS011;16365;51.598;7.668;2022-12-17T11:41:27;78.93;;;29.80;;
29382;SDS011;16365;51.598;7.668;2022-12-17T11:47:36;75.78;;;29.73;;
29382;SDS011;16365;51.598;7.668;2022-12-17T11:50:42;78.50;;;29.15;;
29382;SDS011;16365;51.598;7.668;2022-12-17T11:53:39;76.53;;;27.83;;
29382;SDS011;16365;51.598;7.668;2022-12-17T11:56:29;70.03;;;28.90;;
29382;SDS011;16365;51.598;7.668;2022-12-17T12:05:43;77.63;;;28.98;;
29382;SDS011;16365;51.598;7.668;2022-12-17T12:08:34;78.55;;;30.02;;
29382;SDS011;16365;51.598;7.668;2022-12-17T12:11:26;79.32;;;29.35;;
29382;SDS011;16365;51.598;7.668;2022-12-17T12:29:50;78.15;;;29.00;;
29382;SDS011;16365;51.598;7.668;2022-12-17T12:32:44;76.38;;;29.08;;
29382;SDS011;16365;51.598;7.668;2022-12-17T12:35:38;82.18;;;30.95;;
29382;SDS011;16365;51.598;7.668;2022-12-17T12:38:36;79.25;;;29.13;;
29382;SDS011;16365;51.598;7.668;2022-12-17T12:47:39;71.95;;;27.95;;
29382;SDS011;16365;51.598;7.668;2022-12-17T12:50:39;76.47;;;29.23;;
29382;SDS011;16365;51.598;7.668;2022-12-17T12:53:32;75.30;;;29.50;;
29382;SDS011;16365;51.598;7.668;2022-12-17T12:59:33;66.60;;;26.17;;
29382;SDS011;16365;51.598;7.668;2022-12-17T13:08:03;73.70;;;27.95;;
29382;SDS011;16365;51.598;7.668;2022-12-17T13:10:43;72.60;;;28.98;;
29382;SDS011;16365;51.598;7.668;2022-12-17T13:16:00;83.10;;;30.60;;
29382;SDS011;16365;51.598;7.668;2022-12-17T13:18:42;82.40;;;30.42;;
29382;SDS011;16365;51.598;7.668;2022-12-17T13:23:42;86.00;;;30.63;;
29382;SDS011;16365;51.598;7.668;2022-12-17T13:28:42;85.82;;;31.67;;
29382;SDS011;16365;51.598;7.668;2022-12-17T13:31:20;85.10;;;32.30;;
29382;SDS011;16365;51.598;7.668;2022-12-17T13:39:20;90.15;;;34.95;;
29382;SDS011;16365;51.598;7.668;2022-12-17T13:41:50;86.57;;;32.45;;
29382;SDS011;16365;51.598;7.668;2022-12-17T13:44:23;89.85;;;34.35;;
29382;SDS011;16365;51.598;7.668;2022-12-17T13:46:52;83.40;;;29.40;;
29382;SDS011;16365;51.598;7.668;2022-12-17T13:49:24;81.68;;;32.30;;
29382;SDS011;16365;51.598;7.668;2022-12-17T13:52:05;81.45;;;31.08;;
29382;SDS011;16365;51.598;7.668;2022-12-17T13:54:44;74.60;;;29.33;;
29382;SDS011;16365;51.598;7.668;2022-12-17T13:57:16;80.57;;;29.10;;
29382;SDS011;16365;51.598;7.668;2022-12-17T13:59:48;85.75;;;30.05;;
29382;SDS011;16365;51.598;7.668;2022-12-17T14:04:57;72.45;;;28.30;;
29382;SDS011;16365;51.598;7.668;2022-12-17T14:07:33;76.22;;;28.48;;
29382;SDS011;16365;51.598;7.668;2022-12-17T14:10:03;70.85;;;28.48;;
29382;SDS011;16365;51.598;7.668;2022-12-17T14:12:31;81.50;;;29.90;;
29382;SDS011;16365;51.598;7.668;2022-12-17T14:15:04;71.03;;;29.58;;
29382;SDS011;16365;51.598;7.668;2022-12-17T14:17:36;69.07;;;28.02;;
29382;SDS011;16365;51.598;7.668;2022-12-17T14:22:35;67.15;;;27.75;;
29382;SDS011;16365;51.598;7.668;2022-12-17T14:25:05;75.07;;;28.45;;
29382;SDS011;16365;51.598;7.668;2022-12-17T14:27:50;77.95;;;31.02;;
29382;SDS011;16365;51.598;7.668;2022-12-17T14:32:58;78.13;;;30.38;;
29382;SDS011;16365;51.598;7.668;2022-12-17T14:35:26;73.90;;;30.10;;
29382;SDS011;16365;51.598;7.668;2022-12-17T14:37:54;74.43;;;30.70;;
29382;SDS011;16365;51.598;7.668;2022-12-17T14:40:22;70.57;;;29.48;;
29382;SDS011;16365;51.598;7.668;2022-12-17T14:42:51;70.60;;;31.75;;
29382;SDS011;16365;51.598;7.668;2022-12-17T14:45:23;77.68;;;29.83;;
29382;SDS011;16365;51.598;7.668;2022-12-17T14:47:59;76.35;;;30.60;;
29382;SDS011;16365;51.598;7.668;2022-12-17T14:50:31;77.50;;;31.88;;
29382;SDS011;16365;51.598;7.668;2022-12-17T14:53:02;87.72;;;34.28;;
29382;SDS011;16365;51.598;7.668;2022-12-17T14:55:55;79.20;;;33.22;;
29382;SDS011;16365;51.598;7.668;2022-12-17T14:58:24;84.97;;;33.17;;
29382;SDS011;16365;51.598;7.668;2022-12-17T15:01:03;79.18;;;32.20;;
29382;SDS011;16365;51.598;7.668;2022-12-17T15:03:41;77.38;;;31.52;;
29382;SDS011;16365;51.598;7.668;2022-12-17T15:06:10;82.47;;;34.08;;
29382;SDS011;16365;51.598;7.668;2022-12-17T15:08:38;78.13;;;30.33;;
29382;SDS011;16365;51.598;7.668;2022-12-17T15:11:09;84.82;;;33.15;;
29382;SDS011;16365;51.598;7.668;2022-12-17T15:13:37;76.10;;;29.58;;
29382;SDS011;16365;51.598;7.668;2022-12-17T15:16:05;83.40;;;31.05;;
29382;SDS011;16365;51.598;7.668;2022-12-17T15:18:32;84.15;;;30.95;;
29382;SDS011;16365;51.598;7.668;2022-12-17T15:20:58;80.10;;;30.48;;
29382;SDS011;16365;51.598;7.668;2022-12-17T15:23:26;74.70;;;29.42;;
29382;SDS011;16365;51.598;7.668;2022-12-17T15:25:53;73.88;;;31.58;;
29382;SDS011;16365;51.598;7.668;2022-12-17T15:28:20;72.22;;;29.60;;
29382;SDS011;16365;51.598;7.668;2022-12-17T15:30:48;76.43;;;30.90;;
29382;SDS011;16365;51.598;7.668;2022-12-17T15:33:15;79.38;;;30.75;;
29382;SDS011;16365;51.598;7.668;2022-12-17T15:35:42;76.55;;;30.95;;
29382;SDS011;16365;51.598;7.668;2022-12-17T15:38:08;77.03;;;29.13;;
29382;SDS011;16365;51.598;7.668;2022-12-17T15:40:36;82.05;;;31.92;;
29382;SDS011;16365;51.598;7.668;2022-12-17T15:43:03;73.90;;;28.65;;
29382;SDS011;16365;51.598;7.668;2022-12-17T15:45:40;68.43;;;28.90;;
29382;SDS011;16365;51.598;7.668;2022-12-17T15:48:08;64.40;;;29.15;;
29382;SDS011;16365;51.598;7.668;2022-12-17T15:50:36;70.20;;;27.75;;
29382;SDS011;16365;51.598;7.668;2022-12-17T15:53:03;69.47;;;27.55;;
29382;SDS011;16365;51.598;7.668;2022-12-17T15:55:29;71.18;;;27.73;;
29382;SDS011;16365;51.598;7.668;2022-12-17T15:57:56;66.35;;;27.55;;
29382;SDS011;16365;51.598;7.668;2022-12-17T16:00:23;76.75;;;28.58;;
29382;SDS011;16365;51.598;7.668;2022-12-17T16:02:50;76.15;;;28.88;;
29382;SDS011;16365;51.598;7.668;2022-12-17T16:05:17;63.05;;;27.33;;
29382;SDS011;16365;51.598;7.668;2022-12-17T16:07:44;74.60;;;29.63;;
29382;SDS011;16365;51.598;7.668;2022-12-17T16:10:11;69.03;;;27.52;;
29382;SDS011;16365;51.598;7.668;2022-12-17T16:12:39;69.18;;;25.83;;
29382;SDS011;16365;51.598;7.668;2022-12-17T16:15:06;67.78;;;27.38;;
29382;SDS011;16365;51.598;7.668;2022-12-17T16:17:35;76.07;;;30.38;;
29382;SDS011;16365;51.598;7.668;2022-12-17T16:20:02;79.57;;;30.02;;
29382;SDS011;16365;51.598;7.668;2022-12-17T16:22:30;77.57;;;30.10;;
29382;SDS011;16365;51.598;7.668;2022-12-17T16:24:56;67.70;;;29.58;;
29382;SDS011;16365;51.598;7.668;2022-12-17T16:27:23;70.63;;;30.55;;
29382;SDS011;16365;51.598;7.668;2022-12-17T16:29:49;71.03;;;29.60;;
29382;SDS011;16365;51.598;7.668;2022-12-17T16:32:16;78.25;;;30.48;;
29382;SDS011;16365;51.598;7.668;2022-12-17T16:34:43;71.13;;;28.52;;
29382;SDS011;16365;51.598;7.668;2022-12-17T16:37:10;71.90;;;28.92;;
29382;SDS011;16365;51.598;7.668;2022-12-17T16:39:36;69.13;;;28.55;;
29382;SDS011;16365;51.598;7.668;2022-12-17T16:42:05;72.00;;;30.08;;
29382;SDS011;16365;51.598;7.668;2022-12-17T16:44:32;71.20;;;30.00;;
29382;SDS011;16365;51.598;7.668;2022-12-17T16:46:58;70.57;;;28.95;;
29382;SDS011;16365;51.598;7.668;2022-12-17T16:49:25;75.60;;;32.22;;
29382;SDS011;16365;51.598;7.668;2022-12-17T16:51:52;83.22;;;31.55;;
29382;SDS011;16365;51.598;7.668;2022-12-17T16:54:23;73.90;;;30.95;;
29382;SDS011;16365;51.598;7.668;2022-12-17T16:56:52;69.45;;;29.25;;
29382;SDS011;16365;51.598;7.668;2022-12-17T16:59:19;75.10;;;30.45;;
29382;SDS011;16365;51.598;7.668;2022-12-17T17:01:47;62.70;;;28.55;;
29382;SDS011;16365;51.598;7.668;2022-12-17T17:04:16;77.22;;;29.60;;
29382;SDS011;16365;51.598;7.668;2022-12-17T17:06:45;80.13;;;31.15;;
29382;SDS011;16365;51.598;7.668;2022-12-17T17:09:13;69.53;;;29.83;;
29382;SDS011;16365;51.598;7.668;2022-12-17T17:11:40;69.93;;;29.60;;
29382;SDS011;16365;51.598;7.668;2022-12-17T17:14:13;77.82;;;33.13;;
29382;SDS011;16365;51.598;7.668;2022-12-17T17:16:42;83.40;;;32.20;;